createdAt,value
2018-11-07T00:00:15.767Z,10.25
2018-11-07T00:02:44.133Z,10.23
2018-11-07T00:05:13.011Z,10.21
2018-11-07T00:07:41.406Z,10.16
2018-11-07T00:10:09.093Z,10.12
2018-11-07T00:12:37.424Z,10.07
2018-11-07T00:15:05.749Z,10.05
2018-11-07T00:17:34.658Z,10.01
2018-11-07T00:20:02.992Z,10.00
2018-11-07T00:22:30.743Z,9.97
2018-11-07T00:24:59.063Z,9.90
2018-11-07T00:27:27.966Z,9.84
2018-11-07T00:29:55.738Z,9.80
2018-11-07T00:32:24.061Z,9.78
2018-11-07T00:34:52.415Z,9.76
2018-11-07T00:37:21.334Z,9.76
2018-11-07T00:39:50.075Z,9.75
2018-11-07T00:42:17.875Z,9.74
2018-11-07T00:44:46.165Z,9.69
2018-11-07T00:47:14.504Z,9.64
2018-11-07T00:49:43.415Z,9.60
2018-11-07T00:52:11.747Z,9.60
2018-11-07T00:54:39.484Z,9.58
2018-11-07T00:57:07.811Z,9.58
2018-11-07T00:59:36.149Z,9.58
2018-11-07T01:02:05.043Z,9.55
2018-11-07T01:04:33.371Z,9.53
2018-11-07T01:07:01.133Z,9.53
2018-11-07T01:09:30.147Z,9.53
2018-11-07T01:11:57.788Z,9.51
2018-11-07T01:14:26.686Z,9.49
2018-11-07T01:16:55.014Z,9.47
2018-11-07T01:19:23.334Z,9.44
2018-11-07T01:21:51.090Z,9.40
2018-11-07T01:24:19.984Z,9.35
2018-11-07T01:26:48.312Z,9.32
2018-11-07T01:29:16.630Z,9.28
2018-11-07T01:31:44.934Z,9.24
2018-11-07T01:34:13.199Z,9.19
2018-11-07T01:36:42.130Z,9.16
2018-11-07T01:39:10.488Z,9.13
2018-11-07T01:41:38.821Z,9.13
2018-11-07T01:44:07.139Z,9.09
2018-11-07T01:46:35.460Z,9.06
2018-11-07T01:49:03.204Z,9.02
2018-11-07T01:51:32.114Z,9.01
2018-11-07T01:53:59.876Z,9.01
2018-11-07T01:56:28.208Z,9.01
2018-11-07T01:58:56.529Z,9.00
2018-11-07T02:01:25.432Z,8.98
2018-11-07T02:03:53.172Z,8.98
2018-11-07T02:06:22.082Z,8.96
2018-11-07T02:08:49.826Z,8.92
2018-11-07T02:11:18.735Z,8.88
2018-11-07T02:13:47.819Z,8.86
2018-11-07T02:16:16.139Z,8.84
2018-11-07T02:18:43.895Z,8.83
2018-11-07T02:21:12.798Z,8.83
2018-11-07T02:23:40.552Z,8.82
2018-11-07T02:26:09.502Z,8.81
2018-11-07T02:28:37.780Z,8.78
2018-11-07T02:31:06.098Z,8.76
2018-11-07T02:33:34.677Z,8.73
2018-11-07T02:36:02.409Z,8.71
2018-11-07T02:38:31.331Z,8.70
2018-11-07T02:40:59.679Z,8.67
2018-11-07T02:43:28.001Z,8.64
2018-11-07T02:45:56.322Z,8.57
2018-11-07T02:48:24.658Z,8.58
2018-11-07T02:50:52.398Z,8.58
2018-11-07T02:53:20.740Z,8.56
2018-11-07T02:55:49.629Z,8.54
2018-11-07T02:58:17.431Z,8.51
2018-11-07T03:00:45.710Z,8.45
2018-11-07T03:03:14.607Z,8.40
2018-11-07T03:05:42.367Z,8.37
2018-11-07T03:08:11.270Z,8.35
2018-11-07T03:10:39.622Z,8.33
2018-11-07T03:13:07.344Z,8.30
2018-11-07T03:15:35.662Z,8.27
2018-11-07T03:18:03.981Z,8.24
2018-11-07T03:20:33.108Z,8.23
2018-11-07T03:23:01.211Z,8.20
2018-11-07T03:25:29.539Z,8.17
2018-11-07T03:27:57.858Z,8.14
2018-11-07T03:30:26.189Z,8.12
2018-11-07T03:32:54.505Z,8.10
2018-11-07T03:35:22.854Z,8.09
2018-11-07T03:37:50.587Z,8.08
2018-11-07T03:40:18.912Z,8.07
2018-11-07T03:42:47.846Z,8.04
2018-11-07T03:45:15.607Z,8.03
2018-11-07T03:47:43.929Z,8.01
2018-11-07T03:50:12.253Z,7.97
2018-11-07T03:52:40.572Z,7.97
2018-11-07T03:55:08.897Z,7.97
2018-11-07T03:57:37.806Z,7.98
2018-11-07T04:00:06.139Z,7.98
2018-11-07T04:02:34.463Z,7.95
2018-11-07T04:05:02.214Z,7.95
2018-11-07T04:07:30.544Z,7.95
2018-11-07T04:09:59.446Z,7.91
2018-11-07T04:12:27.766Z,7.88
2018-11-07T04:14:55.507Z,7.88
2018-11-07T04:17:24.706Z,7.84
2018-11-07T04:19:53.028Z,7.85
2018-11-07T04:22:21.353Z,7.84
2018-11-07T04:24:49.680Z,7.84
2018-11-07T04:27:17.430Z,7.84
2018-11-07T04:29:46.335Z,7.85
2018-11-07T04:32:14.883Z,7.88
2018-11-07T04:34:43.209Z,7.90
2018-11-07T04:37:10.952Z,7.88
2018-11-07T04:39:39.861Z,7.86
2018-11-07T04:42:07.594Z,7.86
2018-11-07T04:44:36.526Z,7.88
2018-11-07T04:47:04.259Z,7.90
2018-11-07T04:49:32.598Z,7.93
2018-11-07T04:52:00.924Z,7.97
2018-11-07T04:54:29.826Z,8.02
2018-11-07T04:56:58.594Z,8.06
2018-11-07T04:59:26.922Z,8.13
2018-11-07T05:01:55.823Z,8.19
2018-11-07T05:04:23.594Z,8.26
2018-11-07T05:06:51.919Z,8.32
2018-11-07T05:09:20.815Z,8.38
2018-11-07T05:11:48.556Z,8.45
2018-11-07T05:14:17.467Z,8.50
2018-11-07T05:16:45.205Z,8.57
2018-11-07T05:19:14.169Z,8.63
2018-11-07T05:21:41.930Z,8.71
2018-11-07T05:24:10.256Z,8.78
2018-11-07T05:26:39.172Z,8.85
2018-11-07T05:29:06.923Z,8.91
2018-11-07T05:31:35.842Z,8.92
2018-11-07T05:34:04.176Z,8.94
2018-11-07T05:36:32.615Z,8.95
2018-11-07T05:39:00.952Z,8.95
2018-11-07T05:41:29.281Z,8.93
2018-11-07T05:43:57.619Z,8.91
2018-11-07T05:46:25.385Z,8.87
2018-11-07T05:48:54.639Z,8.85
2018-11-07T05:51:22.910Z,8.80
2018-11-07T05:53:50.779Z,8.77
2018-11-07T05:56:19.002Z,8.73
2018-11-07T05:58:47.330Z,8.71
2018-11-07T06:01:15.656Z,8.71
2018-11-07T06:03:44.574Z,8.71
2018-11-07T06:06:12.906Z,8.79
2018-11-07T06:08:41.253Z,8.85
2018-11-07T06:11:09.580Z,8.92
2018-11-07T06:13:37.384Z,8.99
2018-11-07T06:16:06.267Z,9.04
2018-11-07T06:18:34.557Z,9.10
2018-11-07T06:21:03.249Z,9.14
2018-11-07T06:23:31.578Z,9.15
2018-11-07T06:25:59.332Z,9.18
2018-11-07T06:28:28.248Z,9.18
2018-11-07T06:30:56.566Z,9.18
2018-11-07T06:33:24.889Z,9.20
2018-11-07T06:35:53.235Z,9.22
2018-11-07T06:38:21.582Z,9.22
2018-11-07T06:40:49.942Z,9.26
2018-11-07T06:43:18.260Z,9.30
2018-11-07T06:45:46.926Z,9.32
2018-11-07T06:48:15.086Z,9.33
2018-11-07T06:50:43.022Z,9.35
2018-11-07T06:53:11.919Z,9.40
2018-11-07T06:55:39.681Z,9.43
2018-11-07T06:58:07.987Z,9.45
2018-11-07T07:00:36.321Z,9.50
2018-11-07T07:03:04.644Z,9.53
2018-11-07T07:05:33.052Z,9.57
2018-11-07T07:08:01.883Z,9.63
2018-11-07T07:10:30.204Z,9.67
2018-11-07T07:12:58.542Z,9.73
2018-11-07T07:15:26.852Z,9.78
2018-11-07T07:17:55.191Z,9.85
2018-11-07T07:20:23.490Z,9.92
2018-11-07T07:22:51.809Z,9.98
2018-11-07T07:25:20.131Z,10.04
2018-11-07T07:27:47.883Z,10.10
2018-11-07T07:30:17.080Z,10.18
2018-11-07T07:32:45.164Z,10.26
2018-11-07T07:35:13.502Z,10.33
2018-11-07T07:37:41.820Z,10.41
2018-11-07T07:40:09.561Z,10.48
2018-11-07T07:42:38.475Z,10.57
2018-11-07T07:45:06.207Z,10.69
2018-11-07T07:47:34.550Z,10.81
2018-11-07T07:50:03.510Z,10.94
2018-11-07T07:52:31.261Z,11.04
2018-11-07T07:55:00.176Z,11.14
2018-11-07T07:57:28.508Z,11.22
2018-11-07T07:59:56.249Z,11.29
2018-11-07T08:02:24.578Z,11.36
2018-11-07T08:04:53.476Z,11.43
2018-11-07T08:07:21.223Z,11.50
2018-11-07T08:09:49.555Z,11.57
2018-11-07T08:12:18.460Z,11.66
2018-11-07T08:14:46.248Z,11.73
2018-11-07T08:17:15.157Z,11.81
2018-11-07T08:19:43.487Z,11.88
2018-11-07T08:22:11.243Z,11.96
2018-11-07T08:24:39.562Z,12.03
2018-11-07T08:27:08.386Z,12.09
2018-11-07T08:29:36.801Z,12.14
2018-11-07T08:32:05.151Z,12.19
2018-11-07T08:34:33.468Z,12.23
2018-11-07T08:37:01.222Z,12.28
2018-11-07T08:39:29.548Z,12.33
2018-11-07T08:41:57.876Z,12.39
2018-11-07T08:44:26.209Z,12.42
2018-11-07T08:46:55.663Z,12.47
2018-11-07T08:49:23.747Z,12.51
2018-11-07T08:51:52.099Z,12.56
2018-11-07T08:54:20.436Z,12.62
2018-11-07T08:56:48.763Z,12.68
2018-11-07T08:59:17.090Z,12.74
2018-11-07T09:01:45.424Z,12.75
2018-11-07T09:04:13.167Z,12.78
2018-11-07T09:06:41.497Z,12.81
2018-11-07T09:09:09.859Z,12.87
2018-11-07T09:11:38.457Z,12.90
2018-11-07T09:14:06.780Z,12.93
2018-11-07T09:16:35.105Z,12.96
2018-11-07T09:19:03.434Z,13.00
2018-11-07T09:21:32.344Z,13.02
2018-11-07T09:24:00.674Z,13.06
2018-11-07T09:26:29.141Z,13.07
2018-11-07T09:28:56.886Z,13.09
2018-11-07T09:31:25.811Z,13.10
2018-11-07T09:33:54.115Z,13.15
2018-11-07T09:36:22.439Z,13.14
2018-11-07T09:38:50.188Z,13.16
2018-11-07T09:41:19.100Z,13.22
2018-11-07T09:43:47.423Z,13.26
2018-11-07T09:46:15.748Z,13.32
2018-11-07T09:48:44.083Z,13.38
2018-11-07T09:51:12.415Z,13.42
2018-11-07T09:53:40.787Z,13.45
2018-11-07T09:56:08.508Z,13.44
2018-11-07T09:58:37.417Z,13.47
2018-11-07T10:01:05.757Z,13.50
2018-11-07T10:03:33.496Z,13.53
2018-11-07T10:06:01.817Z,13.58
2018-11-07T10:08:30.727Z,13.63
2018-11-07T10:10:58.473Z,13.70
2018-11-07T10:13:27.371Z,13.76
2018-11-07T10:15:55.123Z,13.82
2018-11-07T10:18:23.735Z,13.88
2018-11-07T10:20:52.352Z,13.91
2018-11-07T10:23:20.697Z,13.99
2018-11-07T10:25:49.025Z,14.03
2018-11-07T10:28:16.881Z,14.09
2018-11-07T10:30:45.112Z,14.12
2018-11-07T10:33:13.435Z,14.17
2018-11-07T10:35:41.764Z,14.22
2018-11-07T10:38:10.171Z,14.27
2018-11-07T10:40:38.426Z,14.32
2018-11-07T10:43:07.333Z,14.38
2018-11-07T10:45:35.074Z,14.45
2018-11-07T10:48:03.981Z,14.56
2018-11-07T10:50:32.311Z,14.72
2018-11-07T10:53:00.638Z,14.84
2018-11-07T10:55:28.997Z,14.95
2018-11-07T10:57:57.340Z,15.02
2018-11-07T11:00:25.668Z,15.03
2018-11-07T11:02:53.992Z,15.03
2018-11-07T11:05:21.761Z,15.05
2018-11-07T11:07:50.655Z,15.12
2018-11-07T11:10:18.981Z,15.14
2018-11-07T11:12:47.314Z,15.12
2018-11-07T11:15:15.079Z,15.11
2018-11-07T11:17:43.405Z,15.13
2018-11-07T11:20:12.309Z,15.17
2018-11-07T11:22:40.643Z,15.27
2018-11-07T11:25:08.393Z,15.26
2018-11-07T11:27:36.835Z,15.24
2018-11-07T11:30:05.629Z,15.26
2018-11-07T11:32:33.371Z,15.34
2018-11-07T11:35:01.847Z,15.42
2018-11-07T11:37:30.027Z,15.44
2018-11-07T11:39:58.362Z,15.45
2018-11-07T11:42:27.283Z,15.48
2018-11-07T11:44:55.025Z,15.50
2018-11-07T11:47:23.352Z,15.65
2018-11-07T11:49:51.694Z,15.79
2018-11-07T11:52:20.029Z,15.97
2018-11-07T11:54:48.373Z,16.16
2018-11-07T11:57:17.299Z,16.25
2018-11-07T11:59:45.847Z,16.35
2018-11-07T12:02:13.454Z,16.53
2018-11-07T12:04:41.719Z,16.73
2018-11-07T12:07:10.626Z,16.91
2018-11-07T12:09:38.374Z,16.99
2018-11-07T12:12:07.300Z,17.18
2018-11-07T12:14:35.028Z,17.36
2018-11-07T12:17:03.353Z,17.43
2018-11-07T12:19:32.248Z,17.50
2018-11-07T12:22:01.163Z,17.52
2018-11-07T12:24:29.494Z,17.52
2018-11-07T12:26:57.899Z,17.60
2018-11-07T12:29:25.582Z,17.79
2018-11-07T12:31:54.541Z,17.97
2018-11-07T12:34:22.290Z,18.10
2018-11-07T12:36:51.197Z,18.18
2018-11-07T12:39:19.560Z,18.26
2018-11-07T12:41:47.304Z,18.37
2018-11-07T12:44:16.215Z,18.33
2018-11-07T12:46:44.836Z,18.17
2018-11-07T12:49:13.170Z,18.27
2018-11-07T12:51:41.496Z,18.29
2018-11-07T12:54:09.828Z,18.30
2018-11-07T12:56:39.235Z,18.29
2018-11-07T12:59:07.590Z,18.27
2018-11-07T13:01:35.919Z,18.25
2018-11-07T13:04:04.245Z,18.23
2018-11-07T13:06:31.987Z,18.25
2018-11-07T13:09:00.333Z,18.28
2018-11-07T13:11:28.697Z,18.27
2018-11-07T13:13:57.584Z,18.23
2018-11-07T13:16:25.971Z,18.25
2018-11-07T13:18:54.255Z,18.25
2018-11-07T13:21:22.002Z,18.31
2018-11-07T13:23:50.909Z,18.27
2018-11-07T13:26:19.244Z,18.15
2018-11-07T13:28:47.635Z,18.09
2018-11-07T13:31:15.907Z,18.03
2018-11-07T13:33:43.660Z,17.98
2018-11-07T13:36:12.569Z,17.89
2018-11-07T13:38:41.209Z,17.82
2018-11-07T13:41:09.302Z,17.63
2018-11-07T13:43:37.561Z,17.56
2018-11-07T13:46:05.359Z,17.54
2018-11-07T13:48:33.646Z,17.52
2018-11-07T13:51:01.981Z,17.52
2018-11-07T13:53:30.885Z,17.49
2018-11-07T13:55:58.634Z,17.43
2018-11-07T13:58:26.972Z,17.40
2018-11-07T14:00:55.932Z,17.36
2018-11-07T14:03:24.267Z,17.33
2018-11-07T14:05:52.645Z,17.24
2018-11-07T14:08:20.928Z,17.09
2018-11-07T14:10:49.252Z,16.95
2018-11-07T14:13:17.602Z,16.81
2018-11-07T14:15:45.808Z,16.68
2018-11-07T14:18:14.263Z,16.56
2018-11-07T14:20:42.614Z,16.45
2018-11-07T14:23:10.349Z,16.28
2018-11-07T14:25:39.267Z,16.06
2018-11-07T14:28:07.811Z,15.74
2018-11-07T14:30:35.349Z,15.41
2018-11-07T14:33:04.268Z,15.20
2018-11-07T14:35:32.008Z,15.01
2018-11-07T14:38:00.347Z,14.84
2018-11-07T14:40:28.686Z,14.65
2018-11-07T14:42:57.593Z,14.40
2018-11-07T14:45:25.337Z,14.17
2018-11-07T14:47:54.321Z,14.02
2018-11-07T14:50:21.997Z,13.93
2018-11-07T14:52:50.906Z,13.85
2018-11-07T14:55:19.234Z,13.75
2018-11-07T14:57:47.558Z,13.64
2018-11-07T15:00:15.890Z,13.56
2018-11-07T15:02:44.335Z,13.48
2018-11-07T15:05:11.986Z,13.40
2018-11-07T15:07:40.931Z,13.33
2018-11-07T15:10:09.289Z,13.24
2018-11-07T15:12:37.629Z,13.17
2018-11-07T15:15:06.026Z,13.07
2018-11-07T15:17:34.357Z,12.94
2018-11-07T15:20:02.695Z,12.80
2018-11-07T15:22:31.026Z,12.71
2018-11-07T15:24:59.533Z,12.63
2018-11-07T15:27:27.194Z,12.56
2018-11-07T15:29:56.109Z,12.49
2018-11-07T15:32:23.875Z,12.42
2018-11-07T15:34:52.216Z,12.39
2018-11-07T15:37:20.572Z,12.36
2018-11-07T15:39:48.900Z,12.31
2018-11-07T15:42:17.812Z,12.32
2018-11-07T15:44:46.137Z,12.35
2018-11-07T15:47:13.885Z,12.35
2018-11-07T15:49:42.793Z,12.36
2018-11-07T15:52:11.132Z,12.36
2018-11-07T15:54:39.459Z,12.37
2018-11-07T15:57:07.789Z,12.35
2018-11-07T15:59:36.114Z,12.34
2018-11-07T16:02:03.860Z,12.30
2018-11-07T16:04:32.219Z,12.28
2018-11-07T16:07:01.130Z,12.30
2018-11-07T16:09:29.460Z,12.32
2018-11-07T16:11:57.823Z,12.34
2018-11-07T16:14:26.168Z,12.35
2018-11-07T16:19:22.838Z,12.35
2018-11-07T16:21:51.168Z,12.35
2018-11-07T16:24:19.496Z,12.35
2018-11-07T16:26:47.835Z,12.34
2018-11-07T16:29:16.161Z,12.33
2018-11-07T16:31:43.940Z,12.33
2018-11-07T16:34:12.817Z,12.31
2018-11-07T16:36:40.595Z,12.28
2018-11-07T16:39:09.527Z,12.26
2018-11-07T16:41:38.138Z,12.23
2018-11-07T16:44:05.732Z,12.20
2018-11-07T16:46:34.645Z,12.19
2018-11-07T16:49:02.416Z,12.15
2018-11-07T16:51:31.336Z,12.13
2018-11-07T16:53:59.674Z,12.12
2018-11-07T16:56:27.429Z,12.11
2018-11-07T16:58:56.380Z,12.09
2018-11-07T17:01:24.686Z,12.06
2018-11-07T17:03:53.024Z,12.03
2018-11-07T17:06:21.380Z,11.99
2018-11-07T17:08:49.725Z,11.97
2018-11-07T17:11:18.060Z,11.94
2018-11-07T17:13:46.401Z,11.90
2018-11-07T17:16:14.735Z,11.87
2018-11-07T17:18:43.064Z,11.80
2018-11-07T17:21:11.390Z,11.77
2018-11-07T17:23:39.146Z,11.65
2018-11-07T17:26:08.060Z,11.58
2018-11-07T17:28:36.401Z,11.51
2018-11-07T17:31:05.347Z,11.47
2018-11-07T17:33:33.106Z,11.41
2018-11-07T17:36:02.028Z,11.35
2018-11-07T17:38:29.832Z,11.35
2018-11-07T17:40:58.732Z,11.36
2018-11-07T17:43:27.068Z,11.35
2018-11-07T17:45:54.832Z,11.35
2018-11-07T17:48:23.209Z,11.35
2018-11-07T17:50:51.509Z,11.37
2018-11-07T17:53:20.426Z,11.39
2018-11-07T17:55:49.937Z,11.39
2018-11-07T17:58:18.402Z,11.40
2018-11-07T18:00:46.741Z,11.42
2018-11-07T18:03:14.493Z,11.47
2018-11-07T18:05:43.511Z,11.48
2018-11-07T18:08:11.846Z,11.48
2018-11-07T18:10:40.245Z,11.49
2018-11-07T18:13:08.729Z,11.48
2018-11-07T18:15:37.071Z,11.48
2018-11-07T18:18:04.876Z,11.49
2018-11-07T18:20:33.245Z,11.49
2018-11-07T18:23:02.165Z,11.50
2018-11-07T18:25:30.498Z,11.56
2018-11-07T18:27:58.837Z,11.59
2018-11-07T18:30:27.171Z,11.62
2018-11-07T18:32:55.520Z,11.63
2018-11-07T18:35:23.975Z,11.57
2018-11-07T18:37:52.069Z,11.52
2018-11-07T18:40:20.510Z,11.50
2018-11-07T18:42:48.878Z,11.46
2018-11-07T18:45:16.601Z,11.42
2018-11-07T18:47:45.665Z,11.38
2018-11-07T18:50:14.254Z,11.34
2018-11-07T18:52:42.532Z,11.31
2018-11-07T18:55:10.913Z,11.26
2018-11-07T18:57:39.357Z,11.20
2018-11-07T19:00:07.721Z,11.15
2018-11-07T19:02:36.066Z,11.10
2018-11-07T19:05:04.516Z,11.03
2018-11-07T19:07:32.853Z,10.99
2018-11-07T19:10:02.119Z,10.96
2018-11-07T19:12:30.531Z,10.91
2018-11-07T19:14:58.913Z,10.90
2018-11-07T19:17:27.250Z,10.89
2018-11-07T19:19:55.639Z,10.87
2018-11-07T19:22:23.970Z,10.84
2018-11-07T19:24:51.724Z,10.81
2018-11-07T19:27:20.243Z,10.77
2018-11-07T19:29:48.656Z,10.74
2018-11-07T19:32:17.006Z,10.69
2018-11-07T19:34:45.934Z,10.66
2018-11-07T19:37:14.328Z,10.64
2018-11-07T19:39:42.738Z,10.60
2018-11-07T19:42:11.088Z,10.57
2018-11-07T19:44:38.840Z,10.52
2018-11-07T19:47:07.898Z,10.49
2018-11-07T19:49:36.149Z,10.46
2018-11-07T19:52:04.493Z,10.45
2018-11-07T19:54:32.474Z,10.43
2018-11-07T19:57:00.857Z,10.41
2018-11-07T19:59:29.216Z,10.38
2018-11-07T20:01:58.134Z,10.34
2018-11-07T20:04:26.527Z,10.33
2018-11-07T20:06:54.911Z,10.30
2018-11-07T20:09:23.262Z,10.28
2018-11-07T20:11:51.098Z,10.24
2018-11-07T20:14:20.025Z,10.22
2018-11-07T20:16:48.386Z,10.21
2018-11-07T20:19:16.183Z,10.20
2018-11-07T20:21:45.101Z,10.13
2018-11-07T20:24:12.922Z,10.12
2018-11-07T20:26:41.953Z,10.10
2018-11-07T20:29:09.718Z,10.08
2018-11-07T20:31:38.658Z,10.04
2018-11-07T20:34:06.994Z,10.02
2018-11-07T20:36:34.741Z,9.99
2018-11-07T20:39:03.688Z,9.97
2018-11-07T20:41:32.178Z,9.94
2018-11-07T20:44:00.452Z,9.89
2018-11-07T20:46:28.205Z,9.85
2018-11-07T20:48:57.164Z,9.82
2018-11-07T20:51:25.567Z,9.78
2018-11-07T20:53:53.995Z,9.74
2018-11-07T20:56:21.746Z,9.70
2018-11-07T20:58:50.092Z,9.66
2018-11-07T21:01:18.526Z,9.64
2018-11-07T21:03:47.527Z,9.63
2018-11-07T21:06:15.877Z,9.61
2018-11-07T21:08:44.294Z,9.60
2018-11-07T21:11:12.629Z,9.58
2018-11-07T21:13:40.429Z,9.56
2018-11-07T21:16:09.418Z,9.54
2018-11-07T21:18:37.754Z,9.53
2018-11-07T21:21:06.140Z,9.52
2018-11-07T21:23:34.476Z,9.50
2018-11-07T21:26:02.808Z,9.50
2018-11-07T21:28:31.382Z,9.46
2018-11-07T21:30:59.645Z,9.44
2018-11-07T21:33:27.987Z,9.40
2018-11-07T21:35:55.850Z,9.38
2018-11-07T21:38:24.831Z,9.35
2018-11-07T21:40:53.206Z,9.35
2018-11-07T21:43:22.529Z,9.35
2018-11-07T21:45:49.985Z,9.34
2018-11-07T21:48:18.373Z,9.34
2018-11-07T21:50:46.737Z,9.33
2018-11-07T21:53:15.086Z,9.32
2018-11-07T21:55:43.427Z,9.32
2018-11-07T21:58:11.881Z,9.32
2018-11-07T22:00:39.669Z,9.28
2018-11-07T22:03:11.622Z,9.27
2018-11-07T22:05:40.005Z,9.24
2018-11-07T22:08:08.370Z,9.21
2018-11-07T22:10:36.147Z,9.19
2018-11-07T22:13:05.189Z,9.15
2018-11-07T22:15:33.615Z,9.11
2018-11-07T22:18:01.417Z,9.04
2018-11-07T22:20:29.777Z,9.04
2018-11-07T22:22:58.791Z,9.02
2018-11-07T22:25:27.194Z,9.01
2018-11-07T22:27:54.943Z,9.00
2018-11-07T22:30:23.906Z,9.00
2018-11-07T22:32:51.694Z,8.98
2018-11-07T22:35:21.546Z,8.99
2018-11-07T22:37:49.990Z,8.97
2018-11-07T22:40:18.335Z,8.96
2018-11-07T22:42:46.675Z,8.97
2018-11-07T22:45:15.022Z,8.97
2018-11-07T22:47:43.427Z,8.97
2018-11-07T22:50:11.224Z,8.98
2018-11-07T22:52:40.123Z,8.99
2018-11-07T22:55:07.884Z,9.00
2018-11-07T22:57:36.798Z,8.97
2018-11-07T23:00:05.140Z,8.96
2018-11-07T23:02:33.483Z,8.92
2018-11-07T23:05:01.820Z,8.85
2018-11-07T23:07:30.158Z,8.80
2018-11-07T23:09:58.506Z,8.75
2018-11-07T23:12:26.853Z,8.73
2018-11-07T23:14:55.191Z,8.73
2018-11-07T23:17:23.603Z,8.71
2018-11-07T23:19:51.944Z,8.71
2018-11-07T23:22:20.292Z,8.72
2018-11-07T23:24:48.052Z,8.74
2018-11-07T23:27:16.427Z,8.77
2018-11-07T23:29:44.773Z,8.79
2018-11-07T23:32:13.707Z,8.80
2018-11-07T23:34:41.472Z,8.78
2018-11-07T23:37:10.418Z,8.80
2018-11-07T23:39:38.181Z,8.82
2018-11-07T23:42:07.298Z,8.84
2018-11-07T23:44:35.938Z,8.88
2018-11-07T23:47:04.276Z,8.89
2018-11-07T23:49:32.037Z,8.90
2018-11-07T23:52:00.381Z,8.89
2018-11-07T23:54:29.012Z,8.83
2018-11-07T23:56:57.940Z,8.80
2018-11-07T23:59:25.705Z,8.76
